Time;durP1;ratioP1;P1;durP2;ratioP2;P2;SDS_P1;SDS_P2;PMS_P1;PMS_P2;Temp;Humidity;BMP_temperature;BMP_pressure;BME280_temperature;BME280_humidity;BME280_pressure;Samples;Min_cycle;Max_cycle;Signal;HPM_P1;HPM_P2
2021/10/21 00:01:09;;;;;;;0.20;0.20;;;16.00;99.90;;;;;;5054417;28;20564;-81
2021/10/21 00:03:35;;;;;;;0.20;0.20;;;16.00;99.90;;;;;;5053739;28;20264;-80
2021/10/21 00:06:02;;;;;;;0.43;0.30;;;16.00;99.90;;;;;;5059937;28;20185;-81
2021/10/21 00:08:27;;;;;;;0.10;0.10;;;16.10;99.90;;;;;;5059168;28;20598;-81
2021/10/21 00:10:53;;;;;;;0.20;0.20;;;16.10;99.90;;;;;;5060829;28;20185;-81
2021/10/21 00:13:19;;;;;;;0.93;0.30;;;16.10;99.90;;;;;;5056221;28;20564;-80
2021/10/21 00:15:44;;;;;;;0.23;0.20;;;16.10;99.90;;;;;;5066097;28;20198;-81
2021/10/21 00:18:10;;;;;;;0.30;0.30;;;16.10;99.90;;;;;;5057182;28;20627;-80
2021/10/21 00:20:36;;;;;;;0.13;0.13;;;16.10;99.90;;;;;;5059858;28;20258;-80
2021/10/21 00:23:01;;;;;;;0.10;0.10;;;16.10;99.90;;;;;;5053372;28;20553;-80
2021/10/21 00:25:27;;;;;;;0.10;0.10;;;16.10;99.90;;;;;;5054326;28;20199;-81
2021/10/21 00:27:53;;;;;;;0.20;0.20;;;16.10;99.90;;;;;;5059571;28;20255;-80
2021/10/21 00:30:18;;;;;;;0.20;0.13;;;16.00;99.90;;;;;;5058709;28;20198;-80
2021/10/21 00:32:44;;;;;;;0.43;0.20;;;16.10;99.90;;;;;;5053991;28;20655;-81
2021/10/21 00:35:10;;;;;;;0.33;0.33;;;16.00;99.90;;;;;;5055041;28;20206;-81
2021/10/21 00:37:37;;;;;;;0.20;0.20;;;16.00;99.90;;;;;;5056541;28;20210;-81
2021/10/21 00:40:04;;;;;;;0.10;0.10;;;16.00;99.90;;;;;;5062852;28;20172;-81
2021/10/21 00:42:29;;;;;;;0.20;0.20;;;16.00;99.90;;;;;;5054971;28;20206;-80
2021/10/21 00:44:55;;;;;;;0.33;0.33;;;16.00;99.90;;;;;;5066893;28;20261;-81
2021/10/21 00:47:21;;;;;;;0.20;0.20;;;16.00;99.90;;;;;;5050546;28;20215;-81
2021/10/21 00:49:47;;;;;;;0.70;0.20;;;16.00;99.90;;;;;;5066565;28;20185;-80
2021/10/21 00:52:13;;;;;;;0.40;0.40;;;16.00;99.90;;;;;;5062390;28;20187;-81
2021/10/21 00:54:39;;;;;;;0.40;0.23;;;16.00;99.90;;;;;;5061066;28;20211;-80
2021/10/21 00:57:07;;;;;;;0.37;0.37;;;16.00;99.90;;;;;;5060586;28;20218;-80
2021/10/21 00:59:34;;;;;;;0.77;0.27;;;16.00;99.90;;;;;;5063697;28;20195;-80
2021/10/21 01:02:00;;;;;;;0.20;0.20;;;16.00;99.90;;;;;;5057033;28;20194;-80
2021/10/21 01:04:26;;;;;;;0.10;0.10;;;16.00;99.90;;;;;;5064102;28;20651;-81
2021/10/21 01:06:53;;;;;;;0.10;0.10;;;16.00;99.90;;;;;;5063933;28;20239;-81
2021/10/21 01:09:18;;;;;;;0.10;0.10;;;16.00;99.90;;;;;;5056478;28;20175;-80
2021/10/21 01:11:44;;;;;;;0.20;0.20;;;16.00;99.90;;;;;;5061188;28;20204;-81
2021/10/21 01:14:10;;;;;;;0.10;0.10;;;16.00;99.90;;;;;;5062106;28;20281;-80
2021/10/21 01:16:40;;;;;;;1.70;0.37;;;16.00;99.90;;;;;;5054437;28;20556;-81
2021/10/21 01:19:23;;;;;;;0.30;0.30;;;16.00;99.90;;;;;;5090113;28;20185;-81
2021/10/21 01:21:51;;;;;;;0.30;0.30;;;16.00;99.90;;;;;;5070948;28;20183;-80
2021/10/21 01:24:18;;;;;;;0.30;0.30;;;16.00;99.90;;;;;;5053932;28;20184;-81
2021/10/21 01:26:49;;;;;;;0.20;0.20;;;16.00;99.90;;;;;;5061055;28;20261;-81
2021/10/21 01:29:17;;;;;;;1.40;0.50;;;16.00;99.90;;;;;;5057620;28;20600;-81
2021/10/21 01:31:43;;;;;;;0.20;0.20;;;16.00;99.90;;;;;;5069419;28;20183;-80
2021/10/21 01:34:09;;;;;;;0.30;0.30;;;16.00;99.90;;;;;;5054235;28;20216;-81
2021/10/21 01:36:36;;;;;;;0.10;0.10;;;16.00;99.90;;;;;;5067644;28;20290;-81
2021/10/21 01:39:09;;;;;;;0.17;0.17;;;16.00;99.90;;;;;;5061380;28;20190;-80
2021/10/21 01:41:35;;;;;;;0.33;0.33;;;16.10;99.90;;;;;;5066235;28;20689;-81
2021/10/21 01:44:01;;;;;;;0.20;0.20;;;16.10;99.90;;;;;;5055877;28;20613;-80
2021/10/21 01:46:26;;;;;;;0.20;0.20;;;16.10;99.90;;;;;;5058281;28;20183;-81
2021/10/21 01:48:52;;;;;;;0.30;0.23;;;16.00;99.90;;;;;;5058549;28;20264;-80
2021/10/21 01:51:18;;;;;;;0.47;0.20;;;16.00;99.90;;;;;;5066816;28;20184;-81
2021/10/21 01:53:43;;;;;;;0.23;0.23;;;15.90;99.90;;;;;;5064881;28;20186;-80
2021/10/21 01:56:09;;;;;;;2.83;1.50;;;15.80;99.90;;;;;;5049695;28;20192;-80
2021/10/21 01:58:35;;;;;;;0.40;0.40;;;15.70;99.90;;;;;;5060162;28;20285;-80
2021/10/21 02:01:01;;;;;;;0.20;0.20;;;15.50;99.90;;;;;;5065204;28;20182;-81
2021/10/21 02:03:26;;;;;;;0.10;0.10;;;15.40;99.90;;;;;;5059311;28;20183;-81
2021/10/21 02:05:52;;;;;;;0.10;0.10;;;15.20;99.90;;;;;;5061803;28;20646;-81
2021/10/21 02:08:18;;;;;;;0.10;0.10;;;15.00;99.90;;;;;;5064637;28;20706;-81
2021/10/21 02:10:43;;;;;;;0.10;0.10;;;14.90;99.90;;;;;;5066103;28;20182;-80
2021/10/21 02:13:09;;;;;;;0.10;0.10;;;14.80;99.90;;;;;;5060153;28;20189;-80
2021/10/21 02:15:35;;;;;;;0.10;0.10;;;14.60;99.90;;;;;;5067484;28;20201;-81
2021/10/21 02:18:00;;;;;;;0.27;0.27;;;14.50;99.90;;;;;;5066098;28;20202;-80
2021/10/21 02:20:27;;;;;;;0.03;0.03;;;14.40;99.90;;;;;;5065362;28;20578;-81
2021/10/21 02:22:53;;;;;;;0.07;0.07;;;14.30;99.90;;;;;;5057088;28;20181;-80
2021/10/21 02:25:19;;;;;;;0.10;0.10;;;14.20;99.90;;;;;;5057008;28;20239;-81
2021/10/21 02:27:44;;;;;;;1.60;0.87;;;14.10;99.90;;;;;;5062339;28;20215;-80
2021/10/21 02:30:12;;;;;;;0.10;0.10;;;14.00;99.90;;;;;;5060852;28;20292;-80
2021/10/21 02:32:39;;;;;;;0.20;0.20;;;13.90;99.90;;;;;;5062537;28;20187;-80
2021/10/21 02:35:05;;;;;;;2.10;0.57;;;13.90;99.90;;;;;;5062256;28;20197;-80
2021/10/21 02:37:31;;;;;;;0.03;0.03;;;13.80;99.90;;;;;;5061533;28;20229;-80
2021/10/21 02:39:57;;;;;;;0.10;0.10;;;13.80;99.90;;;;;;5062955;28;20201;-80
2021/10/21 02:42:22;;;;;;;0.10;0.10;;;13.80;99.90;;;;;;5060640;28;20181;-80
2021/10/21 02:44:48;;;;;;;0.10;0.10;;;13.80;99.90;;;;;;5061517;28;20197;-80
2021/10/21 02:47:14;;;;;;;0.10;0.10;;;13.70;99.90;;;;;;5064003;28;20286;-80
2021/10/21 02:49:39;;;;;;;0.10;0.10;;;13.60;99.90;;;;;;5067861;28;20646;-80
2021/10/21 02:52:05;;;;;;;0.10;0.10;;;13.60;99.90;;;;;;5054896;28;20670;-80
2021/10/21 02:54:31;;;;;;;0.70;0.70;;;13.60;99.90;;;;;;5069293;28;20206;-80
2021/10/21 02:56:57;;;;;;;0.20;0.20;;;13.60;99.90;;;;;;5063558;28;20201;-80
2021/10/21 02:59:23;;;;;;;1.17;1.13;;;13.60;99.90;;;;;;5057601;28;20203;-80
2021/10/21 03:01:48;;;;;;;0.10;0.10;;;13.70;99.90;;;;;;5059972;28;20181;-80
2021/10/21 03:04:14;;;;;;;0.00;0.00;;;13.70;99.90;;;;;;5060077;28;20250;-80
2021/10/21 03:06:40;;;;;;;0.10;0.10;;;13.70;99.90;;;;;;5056588;28;20279;-80
2021/10/21 03:09:06;;;;;;;0.10;0.10;;;13.70;99.90;;;;;;5056729;28;20172;-81
2021/10/21 03:11:31;;;;;;;0.10;0.10;;;13.70;99.90;;;;;;5057872;28;20264;-80
2021/10/21 03:13:57;;;;;;;0.27;0.27;;;13.70;99.90;;;;;;5059054;28;20175;-80
2021/10/21 03:16:22;;;;;;;0.17;0.17;;;13.70;99.90;;;;;;5064728;28;20174;-80
2021/10/21 03:18:48;;;;;;;0.20;0.20;;;13.70;99.90;;;;;;5070268;28;20183;-81
2021/10/21 03:21:14;;;;;;;0.10;0.10;;;13.70;99.90;;;;;;5057726;28;20200;-81
2021/10/21 03:23:39;;;;;;;0.10;0.10;;;13.70;99.90;;;;;;5063274;28;20736;-82
2021/10/21 03:26:05;;;;;;;0.10;0.10;;;13.70;99.90;;;;;;5054008;28;20191;-80
2021/10/21 03:28:31;;;;;;;0.20;0.20;;;13.70;99.90;;;;;;5059794;28;20592;-80
2021/10/21 03:30:56;;;;;;;0.10;0.10;;;13.80;99.90;;;;;;5056029;28;20177;-80
2021/10/21 03:33:22;;;;;;;0.37;0.37;;;13.80;99.90;;;;;;5058547;28;20186;-80
2021/10/21 03:35:47;;;;;;;0.10;0.10;;;13.80;99.90;;;;;;5059367;28;20204;-80
2021/10/21 03:38:13;;;;;;;0.10;0.10;;;13.80;99.90;;;;;;5063112;28;20384;-80
2021/10/21 03:40:38;;;;;;;0.43;0.20;;;13.80;99.90;;;;;;5051495;28;20184;-80
2021/10/21 03:43:04;;;;;;;0.10;0.10;;;13.80;99.90;;;;;;5062339;28;20199;-80
2021/10/21 03:45:30;;;;;;;0.00;0.00;;;13.80;99.90;;;;;;5059491;28;20216;-80
2021/10/21 03:47:56;;;;;;;0.10;0.10;;;13.90;99.90;;;;;;5061104;28;20720;-80
2021/10/21 03:50:22;;;;;;;0.10;0.10;;;13.80;99.90;;;;;;5054903;28;20269;-80
2021/10/21 03:52:47;;;;;;;1.13;0.17;;;13.90;99.90;;;;;;5061763;28;20184;-79
2021/10/21 03:55:13;;;;;;;0.00;0.00;;;13.90;99.90;;;;;;5049952;28;20209;-80
2021/10/21 03:57:38;;;;;;;0.87;0.87;;;13.90;99.90;;;;;;5066271;28;20199;-80
2021/10/21 04:00:07;;;;;;;0.00;0.00;;;13.90;99.90;;;;;;5059825;28;20223;-80
2021/10/21 04:02:37;;;;;;;2.00;0.20;;;13.90;99.90;;;;;;5059002;28;20272;-80
2021/10/21 04:05:03;;;;;;;0.10;0.10;;;13.90;99.90;;;;;;5052802;28;20625;-80
2021/10/21 04:07:29;;;;;;;4.30;0.40;;;13.90;99.90;;;;;;5038010;28;20206;-80
2021/10/21 04:09:55;;;;;;;0.10;0.10;;;13.90;99.90;;;;;;5052156;28;20597;-80
2021/10/21 04:12:20;;;;;;;0.10;0.10;;;13.90;99.90;;;;;;5047976;28;20178;-80
2021/10/21 04:14:46;;;;;;;0.43;0.27;;;13.90;99.90;;;;;;5049098;28;20216;-80
2021/10/21 04:17:11;;;;;;;0.10;0.10;;;14.00;99.90;;;;;;5056848;28;20581;-80
2021/10/21 04:19:37;;;;;;;0.10;0.10;;;14.00;99.90;;;;;;5053483;28;20714;-80
2021/10/21 04:22:03;;;;;;;0.10;0.10;;;14.00;99.90;;;;;;5059210;28;20576;-80
2021/10/21 04:24:28;;;;;;;0.10;0.10;;;14.00;99.90;;;;;;5051946;28;20193;-80
2021/10/21 04:26:54;;;;;;;1.13;1.13;;;14.00;99.90;;;;;;5050938;28;20724;-80
2021/10/21 04:29:19;;;;;;;0.10;0.10;;;14.00;99.90;;;;;;5044782;28;20275;-80
2021/10/21 04:31:45;;;;;;;3.50;1.23;;;14.00;99.90;;;;;;5051049;28;20607;-80
2021/10/21 04:34:12;;;;;;;2.73;0.80;;;14.00;99.90;;;;;;5057499;28;20551;-80
2021/10/21 04:36:39;;;;;;;7.73;0.40;;;14.00;99.90;;;;;;5066989;28;20239;-80
2021/10/21 04:39:05;;;;;;;0.20;0.20;;;14.00;99.90;;;;;;5065398;28;20259;-80
2021/10/21 04:41:30;;;;;;;0.00;0.00;;;14.00;99.90;;;;;;5058499;28;20209;-80
2021/10/21 04:43:56;;;;;;;0.93;0.17;;;14.00;99.90;;;;;;5063519;28;20185;-80
2021/10/21 04:46:21;;;;;;;0.10;0.10;;;14.00;99.90;;;;;;5047575;28;20260;-80
2021/10/21 04:48:47;;;;;;;0.10;0.10;;;14.00;99.90;;;;;;5062970;28;20229;-80
2021/10/21 04:51:13;;;;;;;0.10;0.10;;;14.00;99.90;;;;;;5060733;28;20180;-80
2021/10/21 04:53:38;;;;;;;0.10;0.10;;;14.00;99.90;;;;;;5053765;28;20532;-80
2021/10/21 04:56:04;;;;;;;0.00;0.00;;;14.00;99.90;;;;;;5047368;28;20193;-80
2021/10/21 04:58:29;;;;;;;0.30;0.20;;;14.00;99.90;;;;;;5061980;28;20241;-80
2021/10/21 05:00:55;;;;;;;0.00;0.00;;;13.90;99.90;;;;;;5058457;28;20211;-80
2021/10/21 05:03:21;;;;;;;1.60;0.43;;;13.90;99.90;;;;;;5062721;28;20184;-80
2021/10/21 05:05:46;;;;;;;0.10;0.10;;;13.90;99.90;;;;;;5066360;28;20555;-80
2021/10/21 05:08:12;;;;;;;1.10;0.23;;;13.90;99.90;;;;;;5058906;28;20204;-80
2021/10/21 05:10:37;;;;;;;0.10;0.10;;;13.80;99.90;;;;;;5048139;28;20844;-80
2021/10/21 05:13:03;;;;;;;0.30;0.30;;;13.90;99.90;;;;;;5063661;28;20177;-80
2021/10/21 05:15:29;;;;;;;0.13;0.13;;;13.80;99.90;;;;;;5064885;28;20580;-81
2021/10/21 05:17:54;;;;;;;0.30;0.30;;;13.80;99.90;;;;;;5064668;28;20208;-81
2021/10/21 05:20:20;;;;;;;0.10;0.10;;;13.80;99.90;;;;;;5057398;28;20637;-80
2021/10/21 05:22:46;;;;;;;0.97;0.53;;;13.80;99.90;;;;;;5063251;28;20178;-81
2021/10/21 05:25:11;;;;;;;0.10;0.10;;;13.80;99.90;;;;;;5061165;28;20184;-82
2021/10/21 05:27:38;;;;;;;0.10;0.10;;;13.80;99.90;;;;;;5062236;28;20205;-80
2021/10/21 05:30:04;;;;;;;0.10;0.10;;;13.70;99.90;;;;;;5064986;28;20244;-79
2021/10/21 05:32:30;;;;;;;0.10;0.10;;;13.70;99.90;;;;;;5059188;28;20671;-79
2021/10/21 05:34:56;;;;;;;0.10;0.10;;;13.70;99.90;;;;;;5055641;28;20211;-79
2021/10/21 05:37:21;;;;;;;0.20;0.20;;;13.70;99.90;;;;;;5056424;28;20201;-80
2021/10/21 05:39:47;;;;;;;0.10;0.10;;;13.60;99.90;;;;;;5054865;28;20188;-79
2021/10/21 05:42:13;;;;;;;0.20;0.20;;;13.70;99.90;;;;;;5059984;28;20549;-80
2021/10/21 05:44:39;;;;;;;0.10;0.10;;;13.70;99.90;;;;;;5063522;28;20205;-79
2021/10/21 05:47:04;;;;;;;0.60;0.60;;;13.60;99.90;;;;;;5068114;28;20209;-79
2021/10/21 05:49:30;;;;;;;2.23;2.03;;;13.60;99.90;;;;;;5060872;28;20193;-79
2021/10/21 05:51:56;;;;;;;0.10;0.10;;;13.70;99.90;;;;;;5054777;28;20188;-79
2021/10/21 05:54:21;;;;;;;0.17;0.10;;;13.70;99.90;;;;;;5057424;28;20257;-79
2021/10/21 05:56:48;;;;;;;0.00;0.00;;;13.60;99.90;;;;;;5054018;28;20206;-80
2021/10/21 05:59:13;;;;;;;0.20;0.20;;;13.70;99.90;;;;;;5066710;28;20228;-79
2021/10/21 06:01:40;;;;;;;0.10;0.10;;;13.70;99.90;;;;;;5055173;28;20204;-79
2021/10/21 06:04:05;;;;;;;0.10;0.10;;;13.60;99.90;;;;;;5056160;28;20319;-79
2021/10/21 06:06:34;;;;;;;0.10;0.10;;;13.60;99.90;;;;;;5054977;28;20644;-79
2021/10/21 06:09:02;;;;;;;0.10;0.10;;;13.60;99.90;;;;;;5054199;28;20188;-79
2021/10/21 06:11:29;;;;;;;0.10;0.10;;;13.60;99.90;;;;;;5058352;28;20173;-78
2021/10/21 06:13:54;;;;;;;0.10;0.10;;;13.50;99.90;;;;;;5060155;28;20311;-80
2021/10/21 06:16:20;;;;;;;0.10;0.10;;;13.50;99.90;;;;;;5064815;28;20666;-79
2021/10/21 06:18:45;;;;;;;0.20;0.20;;;13.50;99.90;;;;;;5058922;28;20174;-79
2021/10/21 06:21:12;;;;;;;0.10;0.10;;;13.40;99.90;;;;;;5058131;28;20239;-79
2021/10/21 06:23:38;;;;;;;0.47;0.47;;;13.40;99.90;;;;;;5040896;28;20544;-79
2021/10/21 06:26:04;;;;;;;0.00;0.00;;;13.30;99.90;;;;;;5047506;28;20170;-80
2021/10/21 06:28:30;;;;;;;0.50;0.50;;;13.30;99.90;;;;;;5051075;28;20221;-79
2021/10/21 06:30:56;;;;;;;2.30;0.70;;;13.30;99.90;;;;;;5047551;28;20603;-80
2021/10/21 06:33:21;;;;;;;0.10;0.10;;;13.30;99.90;;;;;;5058508;28;20686;-79
2021/10/21 06:35:47;;;;;;;0.10;0.10;;;13.30;99.90;;;;;;5062977;28;20262;-79
2021/10/21 06:38:15;;;;;;;0.30;0.20;;;13.30;99.90;;;;;;5059067;28;20687;-79
2021/10/21 06:40:41;;;;;;;0.10;0.10;;;13.30;99.90;;;;;;5044266;28;20273;-79
2021/10/21 06:43:07;;;;;;;0.10;0.10;;;13.30;99.90;;;;;;5057303;28;20725;-80
2021/10/21 06:45:33;;;;;;;0.10;0.10;;;13.30;99.90;;;;;;5048583;28;20221;-80
2021/10/21 06:48:00;;;;;;;0.10;0.10;;;13.20;99.90;;;;;;5047636;28;20196;-79
2021/10/21 06:50:26;;;;;;;0.10;0.10;;;13.10;99.90;;;;;;5047982;28;20262;-79
2021/10/21 06:52:51;;;;;;;0.10;0.10;;;13.00;99.90;;;;;;5063208;28;20227;-79
2021/10/21 06:55:17;;;;;;;0.00;0.00;;;13.00;99.90;;;;;;5048898;28;20245;-79
2021/10/21 06:57:56;;;;;;;0.10;0.10;;;12.90;99.90;;;;;;5055069;28;20227;-78
2021/10/21 07:00:22;;;;;;;0.10;0.10;;;12.90;99.90;;;;;;5045819;28;20775;-79
2021/10/21 07:02:48;;;;;;;0.03;0.03;;;12.90;99.90;;;;;;5056176;28;20201;-79
2021/10/21 07:05:15;;;;;;;0.10;0.10;;;12.80;99.90;;;;;;5050069;28;20371;-81
2021/10/21 07:07:41;;;;;;;0.10;0.10;;;12.80;99.90;;;;;;5062775;28;20208;-81
2021/10/21 07:10:08;;;;;;;0.00;0.00;;;12.80;99.90;;;;;;5060527;28;20659;-82
2021/10/21 07:12:38;;;;;;;0.77;0.37;;;12.80;99.90;;;;;;5054981;28;20189;-82
2021/10/21 07:15:07;;;;;;;0.10;0.10;;;12.80;99.90;;;;;;5053906;28;20293;-81
2021/10/21 07:17:32;;;;;;;0.97;0.97;;;12.80;99.90;;;;;;5060511;28;20249;-81
2021/10/21 07:19:58;;;;;;;0.10;0.10;;;12.80;99.90;;;;;;5063319;28;20177;-80
2021/10/21 07:22:24;;;;;;;0.00;0.00;;;12.70;99.90;;;;;;5052583;28;20187;-80
2021/10/21 07:24:49;;;;;;;0.10;0.10;;;12.80;99.90;;;;;;5038476;28;20199;-81
2021/10/21 07:27:16;;;;;;;0.10;0.10;;;12.90;99.90;;;;;;5052771;28;20208;-82
2021/10/21 07:29:41;;;;;;;0.10;0.10;;;12.90;99.90;;;;;;5046992;28;20283;-81
2021/10/21 07:32:07;;;;;;;0.10;0.10;;;12.90;99.90;;;;;;5051357;28;20177;-81
2021/10/21 07:34:32;;;;;;;0.10;0.10;;;13.00;99.90;;;;;;5043942;28;20739;-80
2021/10/21 07:36:58;;;;;;;0.10;0.10;;;13.00;99.90;;;;;;5042275;28;20214;-80
2021/10/21 07:39:25;;;;;;;0.00;0.00;;;13.10;99.90;;;;;;5043962;28;20247;-81
2021/10/21 07:41:51;;;;;;;0.10;0.10;;;13.10;99.90;;;;;;5051487;28;20195;-81
2021/10/21 07:44:18;;;;;;;0.40;0.27;;;13.20;99.90;;;;;;5093142;28;20659;-81
2021/10/21 07:46:49;;;;;;;0.10;0.10;;;13.30;99.90;;;;;;5045237;28;20297;-81
2021/10/21 07:49:15;;;;;;;0.03;0.03;;;13.40;99.90;;;;;;5042663;28;20183;-81
2021/10/21 07:51:41;;;;;;;0.10;0.10;;;13.50;99.90;;;;;;5052024;28;20191;-82
2021/10/21 07:54:07;;;;;;;0.10;0.10;;;13.50;99.90;;;;;;5046286;28;20184;-82
2021/10/21 07:56:33;;;;;;;0.10;0.10;;;13.60;99.90;;;;;;5046011;28;20178;-81
2021/10/21 07:59:00;;;;;;;0.17;0.17;;;13.50;99.90;;;;;;5044707;28;20627;-82
2021/10/21 08:01:26;;;;;;;0.10;0.10;;;13.80;99.90;;;;;;5048748;28;20251;-82
2021/10/21 08:03:55;;;;;;;0.10;0.10;;;13.70;99.90;;;;;;5049029;28;20184;-82
2021/10/21 08:06:21;;;;;;;0.10;0.10;;;13.60;99.90;;;;;;5060359;28;20200;-81
2021/10/21 08:08:47;;;;;;;0.10;0.10;;;13.70;99.90;;;;;;5062174;28;20178;-81
2021/10/21 08:11:14;;;;;;;0.10;0.10;;;13.60;99.90;;;;;;5056064;28;20263;-82
2021/10/21 08:13:39;;;;;;;0.10;0.10;;;13.50;99.90;;;;;;5052814;28;20188;-81
2021/10/21 08:16:05;;;;;;;1.40;0.87;;;13.60;99.90;;;;;;5056409;28;20567;-82
2021/10/21 08:18:31;;;;;;;0.10;0.10;;;13.60;99.90;;;;;;5051192;28;20261;-81
2021/10/21 08:20:57;;;;;;;0.10;0.10;;;13.60;99.90;;;;;;5051182;28;20200;-82
2021/10/21 08:23:23;;;;;;;0.10;0.10;;;13.70;99.90;;;;;;5043084;28;20182;-81
2021/10/21 08:25:49;;;;;;;0.10;0.10;;;13.90;99.90;;;;;;5046766;28;20268;-82
2021/10/21 08:28:14;;;;;;;0.10;0.10;;;13.90;99.90;;;;;;5047038;28;20204;-82
2021/10/21 08:30:43;;;;;;;0.13;0.13;;;13.90;99.90;;;;;;5047136;28;20186;-82
2021/10/21 08:33:09;;;;;;;0.07;0.07;;;13.90;99.90;;;;;;5076350;28;20759;-82
2021/10/21 08:35:36;;;;;;;0.10;0.10;;;13.90;99.90;;;;;;5043540;28;20200;-82
2021/10/21 08:38:02;;;;;;;0.10;0.10;;;13.90;99.90;;;;;;5048639;28;20204;-82
2021/10/21 08:40:33;;;;;;;0.10;0.10;;;14.10;99.90;;;;;;5052616;28;20238;-82
2021/10/21 08:43:02;;;;;;;3.00;0.97;;;14.20;99.90;;;;;;5053279;28;20200;-81
2021/10/21 08:45:28;;;;;;;0.37;0.37;;;14.10;99.90;;;;;;5056320;28;20186;-82
2021/10/21 08:48:01;;;;;;;0.10;0.10;;;13.90;99.90;;;;;;5062553;28;20749;-81
2021/10/21 08:50:27;;;;;;;0.10;0.10;;;13.90;99.90;;;;;;5053641;28;20650;-82
2021/10/21 08:52:53;;;;;;;0.80;0.17;;;14.10;99.90;;;;;;5052492;28;20185;-81
2021/10/21 08:55:19;;;;;;;0.17;0.17;;;13.90;99.90;;;;;;5046894;28;20197;-82
2021/10/21 08:57:45;;;;;;;0.10;0.10;;;13.90;99.90;;;;;;5053841;28;20202;-83
2021/10/21 09:00:11;;;;;;;0.20;0.20;;;13.70;99.90;;;;;;5036686;28;20577;-82
2021/10/21 09:02:54;;;;;;;0.30;0.30;;;13.70;99.90;;;;;;5044352;28;20180;-81
2021/10/21 09:05:29;;;;;;;0.20;0.20;;;13.70;99.90;;;;;;5048705;28;20195;-82
2021/10/21 09:08:11;;;;;;;0.10;0.10;;;13.70;99.90;;;;;;5060404;28;20672;-81
2021/10/21 09:10:45;;;;;;;0.10;0.10;;;13.70;99.90;;;;;;5057902;28;20177;-82
2021/10/21 09:13:26;;;;;;;0.10;0.10;;;13.70;99.90;;;;;;5054066;28;20598;-83
2021/10/21 09:15:55;;;;;;;0.10;0.10;;;13.60;99.90;;;;;;5090475;28;20238;-83
2021/10/21 09:18:22;;;;;;;0.10;0.10;;;13.60;99.90;;;;;;5061670;28;20213;-82
2021/10/21 09:20:48;;;;;;;0.10;0.10;;;13.50;99.90;;;;;;5053006;28;20176;-82
2021/10/21 09:23:17;;;;;;;0.10;0.10;;;13.60;99.90;;;;;;5055212;28;20182;-81
2021/10/21 09:25:47;;;;;;;0.10;0.10;;;13.60;99.90;;;;;;5048645;28;20183;-82
2021/10/21 09:28:21;;;;;;;0.00;0.00;;;13.50;99.90;;;;;;5057344;28;20208;-81
2021/10/21 09:31:04;;;;;;;0.13;0.13;;;13.40;99.90;;;;;;5056291;28;20181;-80
2021/10/21 09:33:43;;;;;;;0.10;0.10;;;13.30;99.90;;;;;;5059177;28;20254;-81
2021/10/21 09:36:08;;;;;;;0.30;0.23;;;13.40;99.90;;;;;;5049184;28;20203;-80
2021/10/21 09:38:34;;;;;;;0.00;0.00;;;13.40;99.90;;;;;;5063066;28;20194;-81
2021/10/21 09:41:18;;;;;;;0.10;0.10;;;13.30;99.90;;;;;;5052080;28;20184;-81
2021/10/21 09:43:44;;;;;;;0.87;0.20;;;13.30;99.90;;;;;;5059598;28;20278;-80
2021/10/21 09:46:31;;;;;;;0.23;0.23;;;13.30;99.90;;;;;;5055168;28;20177;-82
2021/10/21 09:49:25;;;;;;;0.10;0.10;;;13.20;99.90;;;;;;5067615;28;20173;-81
2021/10/21 09:51:51;;;;;;;0.20;0.20;;;13.30;99.90;;;;;;5062302;28;20207;-80
2021/10/21 09:54:21;;;;;;;0.10;0.10;;;13.20;99.90;;;;;;5064591;28;20174;-81
2021/10/21 09:57:02;;;;;;;0.67;0.17;;;13.20;99.90;;;;;;5047686;28;20274;-81
2021/10/21 09:59:35;;;;;;;0.87;0.27;;;13.30;99.90;;;;;;5046937;28;20188;-82
2021/10/21 10:02:34;;;;;;;0.10;0.10;;;13.40;99.90;;;;;;5053184;28;20205;-82
2021/10/21 10:05:07;;;;;;;0.10;0.10;;;13.40;99.90;;;;;;5022237;28;20204;-80
2021/10/21 10:07:35;;;;;;;0.00;0.00;;;13.40;99.90;;;;;;5051291;28;20206;-81
2021/10/21 10:10:03;;;;;;;0.10;0.10;;;13.40;99.90;;;;;;5063631;28;20185;-82
2021/10/21 10:12:32;;;;;;;0.20;0.20;;;13.30;99.90;;;;;;5049163;28;20202;-81
2021/10/21 10:14:58;;;;;;;0.10;0.10;;;13.40;99.90;;;;;;5045265;28;20220;-81
2021/10/21 10:17:26;;;;;;;0.53;0.53;;;13.50;99.90;;;;;;5060068;28;20212;-81
2021/10/21 10:19:52;;;;;;;0.10;0.10;;;13.60;99.90;;;;;;5062792;28;20183;-81
2021/10/21 10:22:34;;;;;;;0.10;0.10;;;13.80;99.90;;;;;;5040244;28;20843;-82
2021/10/21 10:25:00;;;;;;;0.20;0.20;;;13.90;99.90;;;;;;5042300;28;20654;-80
2021/10/21 10:27:32;;;;;;;0.10;0.10;;;13.90;99.90;;;;;;5066194;28;20236;-81
2021/10/21 10:29:59;;;;;;;0.10;0.10;;;13.90;99.90;;;;;;5100538;28;20677;-80
2021/10/21 10:32:41;;;;;;;0.10;0.10;;;14.00;99.90;;;;;;5065494;28;20181;-80
2021/10/21 10:35:29;;;;;;;0.20;0.20;;;14.30;99.90;;;;;;5049476;28;20201;-80
2021/10/21 10:37:58;;;;;;;0.17;0.17;;;14.50;99.90;;;;;;5049835;28;20203;-81
2021/10/21 10:40:47;;;;;;;0.10;0.10;;;14.70;99.90;;;;;;5048935;28;20264;-81
2021/10/21 10:43:18;;;;;;;1.30;0.50;;;14.90;99.90;;;;;;5081417;28;20178;-80
2021/10/21 10:45:47;;;;;;;0.83;0.83;;;15.00;99.90;;;;;;5061955;28;20517;-80
2021/10/21 10:48:14;;;;;;;0.10;0.10;;;14.90;99.90;;;;;;5051228;28;20212;-80
2021/10/21 10:50:42;;;;;;;0.40;0.30;;;14.70;99.90;;;;;;5085699;28;20578;-81
2021/10/21 10:53:08;;;;;;;0.20;0.20;;;14.70;99.90;;;;;;5041459;28;20178;-80
2021/10/21 10:55:42;;;;;;;0.20;0.20;;;14.70;99.90;;;;;;5041733;28;20274;-81
2021/10/21 10:58:15;;;;;;;3.93;1.17;;;15.10;99.90;;;;;;5036972;28;20269;-81
2021/10/21 11:00:51;;;;;;;0.10;0.10;;;15.30;99.90;;;;;;5044887;28;20255;-82
2021/10/21 11:03:41;;;;;;;0.20;0.20;;;15.50;99.90;;;;;;5049176;28;20177;-81
2021/10/21 11:06:08;;;;;;;0.13;0.13;;;15.60;99.90;;;;;;5040122;28;20248;-81
2021/10/21 11:08:52;;;;;;;0.00;0.00;;;15.40;99.90;;;;;;5051359;28;20245;-81
2021/10/21 11:11:50;;;;;;;0.10;0.10;;;15.00;99.90;;;;;;5050043;28;20619;-81
2021/10/21 11:14:37;;;;;;;2.13;0.80;;;15.00;99.90;;;;;;5052625;28;20181;-81
2021/10/21 11:17:03;;;;;;;4.23;0.30;;;15.10;99.90;;;;;;5048243;28;20217;-81
2021/10/21 11:19:47;;;;;;;0.10;0.10;;;14.70;99.90;;;;;;5060613;28;20268;-81
2021/10/21 11:22:18;;;;;;;0.10;0.10;;;14.60;99.90;;;;;;5039499;28;20595;-81
2021/10/21 11:24:52;;;;;;;0.40;0.37;;;14.60;99.90;;;;;;5043593;28;20181;-81
2021/10/21 11:27:25;;;;;;;0.17;0.17;;;14.60;99.90;;;;;;5045848;28;20209;-80
2021/10/21 11:29:53;;;;;;;0.93;0.93;;;14.60;99.90;;;;;;5050091;28;20621;-81
2021/10/21 11:32:20;;;;;;;0.40;0.40;;;14.50;99.90;;;;;;5055106;28;20182;-82
2021/10/21 11:34:49;;;;;;;0.17;0.17;;;14.50;99.90;;;;;;5046230;28;20201;-81
2021/10/21 11:37:31;;;;;;;0.17;0.17;;;14.50;99.90;;;;;;5040694;28;20266;-81
2021/10/21 11:39:56;;;;;;;0.67;0.67;;;14.50;99.90;;;;;;5050636;28;20192;-81
2021/10/21 11:42:28;;;;;;;0.40;0.40;;;14.50;99.90;;;;;;5036146;28;20190;-82
2021/10/21 11:45:02;;;;;;;0.17;0.17;;;14.70;99.90;;;;;;5037122;28;20667;-81
2021/10/21 11:47:28;;;;;;;0.20;0.20;;;14.70;99.90;;;;;;5042749;28;20204;-81
2021/10/21 11:49:56;;;;;;;3.97;0.20;;;14.80;99.90;;;;;;5044556;28;20189;-81
2021/10/21 11:52:36;;;;;;;0.10;0.10;;;14.80;99.90;;;;;;5037581;28;20186;-81
2021/10/21 11:55:03;;;;;;;0.10;0.10;;;14.90;99.90;;;;;;5043509;28;20201;-81
2021/10/21 11:57:33;;;;;;;0.23;0.23;;;15.30;99.90;;;;;;5056280;28;20255;-81
2021/10/21 12:00:00;;;;;;;0.10;0.10;;;15.60;99.90;;;;;;5051822;28;20178;-81
2021/10/21 12:02:30;;;;;;;0.30;0.23;;;15.50;99.90;;;;;;5052752;28;20281;-81
2021/10/21 12:04:55;;;;;;;0.47;0.47;;;15.70;99.90;;;;;;5038739;28;20184;-81
2021/10/21 12:07:22;;;;;;;0.10;0.10;;;15.80;99.90;;;;;;5051018;28;20210;-81
2021/10/21 12:09:48;;;;;;;0.40;0.40;;;15.60;99.90;;;;;;5062379;28;20177;-81
2021/10/21 12:12:17;;;;;;;0.23;0.23;;;15.70;99.90;;;;;;5064059;28;20173;-81
2021/10/21 12:14:44;;;;;;;0.80;0.80;;;16.10;99.90;;;;;;5053629;28;20199;-81
2021/10/21 12:17:12;;;;;;;0.37;0.37;;;16.10;99.90;;;;;;5063313;28;20201;-80
2021/10/21 12:19:51;;;;;;;0.20;0.20;;;15.90;99.90;;;;;;5057439;28;20179;-81
2021/10/21 12:22:22;;;;;;;0.20;0.20;;;15.70;99.90;;;;;;5058874;28;20173;-81
2021/10/21 12:24:48;;;;;;;0.33;0.33;;;15.60;99.90;;;;;;5083854;28;20273;-81
2021/10/21 12:27:22;;;;;;;0.40;0.40;;;15.60;99.90;;;;;;5042336;28;20293;-81
2021/10/21 12:29:48;;;;;;;0.10;0.10;;;15.70;99.90;;;;;;5061460;28;20244;-80
2021/10/21 12:32:19;;;;;;;0.47;0.20;;;15.70;99.90;;;;;;5054706;28;20231;-81
2021/10/21 12:34:47;;;;;;;2.53;0.23;;;15.70;99.90;;;;;;5055325;28;20230;-81
2021/10/21 12:37:24;;;;;;;0.10;0.10;;;15.90;99.90;;;;;;5052828;28;20195;-81
2021/10/21 12:39:50;;;;;;;0.20;0.20;;;16.10;99.90;;;;;;5068128;28;20185;-81
2021/10/21 12:42:24;;;;;;;0.30;0.30;;;16.20;99.90;;;;;;5049290;28;20179;-81
2021/10/21 12:44:58;;;;;;;0.10;0.10;;;16.20;99.90;;;;;;5064856;28;20206;-81
2021/10/21 12:47:25;;;;;;;0.10;0.10;;;16.20;99.90;;;;;;5052349;28;20207;-81
2021/10/21 12:50:23;;;;;;;0.10;0.10;;;15.90;99.90;;;;;;5066586;28;20182;-81
2021/10/21 12:52:53;;;;;;;0.10;0.10;;;15.90;99.90;;;;;;5052500;28;20311;-80